sensor_id;sensor_type;location;lat;lon;timestamp;pressure;altitude;pressure_sealevel;temperature;humidity
70833;BME280;58452;59.418;17.962;2023-05-06T00:01:01;102999.78;;;1.65;58.97
70833;BME280;58452;59.418;17.962;2023-05-06T00:03:27;102996.44;;;1.62;58.91
70833;BME280;58452;59.418;17.962;2023-05-06T00:05:53;102993.09;;;1.60;58.89
70833;BME280;58452;59.418;17.962;2023-05-06T00:08:19;103002.50;;;1.58;58.78
70833;BME280;58452;59.418;17.962;2023-05-06T00:10:45;103002.50;;;1.56;58.91
70833;BME280;58452;59.418;17.962;2023-05-06T00:13:10;103010.97;;;1.57;58.93
70833;BME280;58452;59.418;17.962;2023-05-06T00:15:37;102999.19;;;1.51;58.70
70833;BME280;58452;59.418;17.962;2023-05-06T00:18:02;102999.25;;;1.50;59.15
70833;BME280;58452;59.418;17.962;2023-05-06T00:20:28;102998.47;;;1.46;59.03
70833;BME280;58452;59.418;17.962;2023-05-06T00:22:54;103006.13;;;1.44;59.32
70833;BME280;58452;59.418;17.962;2023-05-06T00:25:20;103008.84;;;1.35;59.32
70833;BME280;58452;59.418;17.962;2023-05-06T00:27:45;103012.22;;;1.34;59.55
70833;BME280;58452;59.418;17.962;2023-05-06T00:30:11;103019.81;;;1.36;59.25
70833;BME280;58452;59.418;17.962;2023-05-06T00:32:38;103011.41;;;1.34;59.21
70833;BME280;58452;59.418;17.962;2023-05-06T00:35:04;103005.53;;;1.29;59.23
70833;BME280;58452;59.418;17.962;2023-05-06T00:37:29;103012.25;;;1.33;59.58
70833;BME280;58452;59.418;17.962;2023-05-06T00:39:55;103019.09;;;1.31;59.57
70833;BME280;58452;59.418;17.962;2023-05-06T00:42:21;103017.50;;;1.24;59.44
70833;BME280;58452;59.418;17.962;2023-05-06T00:44:50;103014.13;;;1.22;59.69
70833;BME280;58452;59.418;17.962;2023-05-06T00:47:17;103014.19;;;1.20;59.66
70833;BME280;58452;59.418;17.962;2023-05-06T00:49:44;103012.56;;;1.15;59.80
70833;BME280;58452;59.418;17.962;2023-05-06T00:52:10;103006.75;;;1.08;59.92
70833;BME280;58452;59.418;17.962;2023-05-06T00:54:36;103012.63;;;1.12;59.79
70833;BME280;58452;59.418;17.962;2023-05-06T00:57:01;103012.69;;;1.09;59.65
70833;BME280;58452;59.418;17.962;2023-05-06T00:59:27;103014.44;;;1.04;60.33
70833;BME280;58452;59.418;17.962;2023-05-06T01:01:53;103010.31;;;0.98;60.00
70833;BME280;58452;59.418;17.962;2023-05-06T01:04:20;103014.50;;;1.01;59.85
70833;BME280;58452;59.418;17.962;2023-05-06T01:06:57;103011.16;;;0.98;59.50
70833;BME280;58452;59.418;17.962;2023-05-06T01:09:41;103014.56;;;0.97;59.81
70833;BME280;58452;59.418;17.962;2023-05-06T01:12:22;103004.50;;;0.88;59.62
70833;BME280;58452;59.418;17.962;2023-05-06T01:17:21;103014.69;;;0.88;60.12
70833;BME280;58452;59.418;17.962;2023-05-06T01:19:49;103019.75;;;0.88;59.33
70833;BME280;58452;59.418;17.962;2023-05-06T01:22:18;103016.53;;;0.80;60.20
70833;BME280;58452;59.418;17.962;2023-05-06T01:24:44;103018.25;;;0.78;60.07
70833;BME280;58452;59.418;17.962;2023-05-06T01:27:12;103017.38;;;0.79;60.11
70833;BME280;58452;59.418;17.962;2023-05-06T01:29:40;103023.41;;;0.72;60.73
70833;BME280;58452;59.418;17.962;2023-05-06T01:32:25;103025.13;;;0.70;60.66
70833;BME280;58452;59.418;17.962;2023-05-06T01:35:05;103033.63;;;0.69;60.97
70833;BME280;58452;59.418;17.962;2023-05-06T01:37:43;103026.97;;;0.62;60.46
70833;BME280;58452;59.418;17.962;2023-05-06T01:40:11;103016.00;;;0.57;60.26
70833;BME280;58452;59.418;17.962;2023-05-06T01:42:38;103023.59;;;0.60;60.09
70833;BME280;58452;59.418;17.962;2023-05-06T01:45:05;103027.03;;;0.56;60.40
70833;BME280;58452;59.418;17.962;2023-05-06T01:47:32;103026.22;;;0.54;60.47
70833;BME280;58452;59.418;17.962;2023-05-06T01:49:58;103019.50;;;0.48;60.45
70833;BME280;58452;59.418;17.962;2023-05-06T01:52:25;103030.47;;;0.52;60.60
70833;BME280;58452;59.418;17.962;2023-05-06T01:54:50;103022.09;;;0.47;60.57
70833;BME280;58452;59.418;17.962;2023-05-06T01:57:16;103026.34;;;0.46;60.21
70833;BME280;58452;59.418;17.962;2023-05-06T01:59:41;103020.47;;;0.43;60.88
70833;BME280;58452;59.418;17.962;2023-05-06T02:02:07;103022.16;;;0.44;60.40
70833;BME280;58452;59.418;17.962;2023-05-06T02:04:32;103020.47;;;0.43;60.61
70833;BME280;58452;59.418;17.962;2023-05-06T02:06:58;103028.03;;;0.44;60.49
70833;BME280;58452;59.418;17.962;2023-05-06T02:09:23;103029.88;;;0.36;61.17
70833;BME280;58452;59.418;17.962;2023-05-06T02:11:48;103021.47;;;0.30;61.36
70833;BME280;58452;59.418;17.962;2023-05-06T02:14:14;103018.97;;;0.27;61.45
70833;BME280;58452;59.418;17.962;2023-05-06T02:16:39;103021.41;;;0.34;61.71
70833;BME280;58452;59.418;17.962;2023-05-06T02:19:05;103021.50;;;0.28;61.46
70833;BME280;58452;59.418;17.962;2023-05-06T02:21:31;103024.00;;;0.33;61.53
70833;BME280;58452;59.418;17.962;2023-05-06T02:23:57;103033.31;;;0.31;61.81
70833;BME280;58452;59.418;17.962;2023-05-06T02:26:22;103025.72;;;0.28;62.31
70833;BME280;58452;59.418;17.962;2023-05-06T02:28:47;103027.44;;;0.26;61.80
70833;BME280;58452;59.418;17.962;2023-05-06T02:31:14;103020.69;;;0.25;62.00
70833;BME280;58452;59.418;17.962;2023-05-06T02:33:40;103027.53;;;0.20;62.14
70833;BME280;58452;59.418;17.962;2023-05-06T02:36:05;103020.81;;;0.16;61.71
70833;BME280;58452;59.418;17.962;2023-05-06T02:38:31;103032.66;;;0.17;61.48
70833;BME280;58452;59.418;17.962;2023-05-06T02:40:56;103021.78;;;0.04;63.19
70833;BME280;58452;59.418;17.962;2023-05-06T02:43:21;103024.41;;;-0.01;63.12
70833;BME280;58452;59.418;17.962;2023-05-06T02:45:47;103026.16;;;-0.06;62.61
70833;BME280;58452;59.418;17.962;2023-05-06T02:48:12;103017.69;;;-0.05;62.26
70833;BME280;58452;59.418;17.962;2023-05-06T02:50:38;103026.06;;;0.02;62.68
70833;BME280;58452;59.418;17.962;2023-05-06T02:53:03;103018.50;;;-0.03;62.35
70833;BME280;58452;59.418;17.962;2023-05-06T02:55:29;103017.69;;;-0.05;62.40
70833;BME280;58452;59.418;17.962;2023-05-06T02:57:54;103026.06;;;0.00;62.05
70833;BME280;58452;59.418;17.962;2023-05-06T03:00:20;103022.72;;;-0.02;61.77
70833;BME280;58452;59.418;17.962;2023-05-06T03:02:45;103024.41;;;-0.04;61.91
70833;BME280;58452;59.418;17.962;2023-05-06T03:05:11;103026.09;;;-0.03;61.60
70833;BME280;58452;59.418;17.962;2023-05-06T03:07:37;103027.84;;;-0.05;62.51
70833;BME280;58452;59.418;17.962;2023-05-06T03:10:02;103013.59;;;-0.16;62.25
70833;BME280;58452;59.418;17.962;2023-05-06T03:12:29;103010.19;;;-0.15;61.85
70833;BME280;58452;59.418;17.962;2023-05-06T03:14:54;103024.50;;;-0.10;62.12
70833;BME280;58452;59.418;17.962;2023-05-06T03:17:20;103032.06;;;-0.07;62.69
70833;BME280;58452;59.418;17.962;2023-05-06T03:19:48;103029.53;;;-0.07;62.31
70833;BME280;58452;59.418;17.962;2023-05-06T03:22:13;103028.72;;;-0.10;62.17
70833;BME280;58452;59.418;17.962;2023-05-06T03:24:39;103020.34;;;-0.15;62.42
70833;BME280;58452;59.418;17.962;2023-05-06T03:27:04;103038.03;;;-0.08;62.77
70833;BME280;58452;59.418;17.962;2023-05-06T03:29:30;103035.50;;;-0.08;62.46
70833;BME280;58452;59.418;17.962;2023-05-06T03:31:55;103028.69;;;-0.07;62.40
70833;BME280;58452;59.418;17.962;2023-05-06T03:34:21;103032.91;;;-0.05;63.62
70833;BME280;58452;59.418;17.962;2023-05-06T03:36:47;103035.44;;;-0.06;62.64
70833;BME280;58452;59.418;17.962;2023-05-06T03:39:12;103033.72;;;-0.01;63.20
70833;BME280;58452;59.418;17.962;2023-05-06T03:41:37;103032.78;;;0.05;63.53
70833;BME280;58452;59.418;17.962;2023-05-06T03:44:03;103025.25;;;0.00;62.75
70833;BME280;58452;59.418;17.962;2023-05-06T03:46:29;103041.19;;;0.10;62.98
70833;BME280;58452;59.418;17.962;2023-05-06T03:48:54;103034.38;;;0.12;62.60
70833;BME280;58452;59.418;17.962;2023-05-06T03:51:19;103035.22;;;0.14;62.81
70833;BME280;58452;59.418;17.962;2023-05-06T03:53:45;103037.75;;;0.14;62.87
70833;BME280;58452;59.418;17.962;2023-05-06T03:56:10;103049.50;;;0.22;62.86
70833;BME280;58452;59.418;17.962;2023-05-06T03:58:36;103052.88;;;0.23;64.06
70833;BME280;58452;59.418;17.962;2023-05-06T04:01:01;103049.47;;;0.24;64.49
70833;BME280;58452;59.418;17.962;2023-05-06T04:03:27;103049.41;;;0.30;64.04
70833;BME280;58452;59.418;17.962;2023-05-06T04:05:52;103051.88;;;0.36;64.39
70833;BME280;58452;59.418;17.962;2023-05-06T04:08:17;103052.63;;;0.44;64.72
70833;BME280;58452;59.418;17.962;2023-05-06T04:10:43;103053.44;;;0.47;64.40
70833;BME280;58452;59.418;17.962;2023-05-06T04:13:09;103050.75;;;0.55;64.60
70833;BME280;58452;59.418;17.962;2023-05-06T04:15:34;103050.69;;;0.61;64.98
70833;BME280;58452;59.418;17.962;2023-05-06T04:18:00;103047.25;;;0.65;65.05
70833;BME280;58452;59.418;17.962;2023-05-06T04:20:26;103053.88;;;0.75;65.33
70833;BME280;58452;59.418;17.962;2023-05-06T04:22:52;103050.44;;;0.78;65.10
70833;BME280;58452;59.418;17.962;2023-05-06T04:25:17;103050.31;;;0.87;65.22
70833;BME280;58452;59.418;17.962;2023-05-06T04:27:44;103053.53;;;0.96;65.80
70833;BME280;58452;59.418;17.962;2023-05-06T04:30:10;103052.53;;;1.07;66.36
70833;BME280;58452;59.418;17.962;2023-05-06T04:32:36;103054.09;;;1.17;66.12
70833;BME280;58452;59.418;17.962;2023-05-06T04:35:03;103044.59;;;1.25;66.71
70833;BME280;58452;59.418;17.962;2023-05-06T04:37:28;103047.81;;;1.36;66.90
70833;BME280;58452;59.418;17.962;2023-05-06T04:39:55;103055.31;;;1.43;66.41
70833;BME280;58452;59.418;17.962;2023-05-06T04:42:21;103053.47;;;1.53;66.64
70833;BME280;58452;59.418;17.962;2023-05-06T04:44:46;103054.13;;;1.63;66.29
70833;BME280;58452;59.418;17.962;2023-05-06T04:47:13;103056.53;;;1.70;66.25
70833;BME280;58452;59.418;17.962;2023-05-06T04:49:38;103050.38;;;1.83;66.78
70833;BME280;58452;59.418;17.962;2023-05-06T04:52:04;103045.16;;;1.88;66.29
70833;BME280;58452;59.418;17.962;2023-05-06T04:54:29;103039.84;;;1.98;66.24
70833;BME280;58452;59.418;17.962;2023-05-06T04:56:55;103043.78;;;2.16;66.10
70833;BME280;58452;59.418;17.962;2023-05-06T04:59:20;103038.53;;;2.24;65.86
70833;BME280;58452;59.418;17.962;2023-05-06T05:01:46;103043.25;;;2.40;65.75
70833;BME280;58452;59.418;17.962;2023-05-06T05:04:11;103044.63;;;2.55;65.37
70833;BME280;58452;59.418;17.962;2023-05-06T05:06:36;103040.97;;;2.67;64.03
70833;BME280;58452;59.418;17.962;2023-05-06T05:09:02;103041.50;;;2.79;63.31
70833;BME280;58452;59.418;17.962;2023-05-06T05:11:27;103050.56;;;2.92;61.69
70833;BME280;58452;59.418;17.962;2023-05-06T05:13:53;103052.75;;;3.08;60.13
70833;BME280;58452;59.418;17.962;2023-05-06T05:16:18;103052.44;;;3.20;59.89
70833;BME280;58452;59.418;17.962;2023-05-06T05:18:44;103045.53;;;3.25;58.82
70833;BME280;58452;59.418;17.962;2023-05-06T05:21:09;103046.00;;;3.40;58.74
70833;BME280;58452;59.418;17.962;2023-05-06T05:23:35;103052.69;;;3.44;58.55
70833;BME280;58452;59.418;17.962;2023-05-06T05:26:01;103053.94;;;3.62;57.20
70833;BME280;58452;59.418;17.962;2023-05-06T05:28:27;103051.88;;;3.75;55.99
70833;BME280;58452;59.418;17.962;2023-05-06T05:30:52;103042.34;;;3.81;55.36
70833;BME280;58452;59.418;17.962;2023-05-06T05:33:18;103055.31;;;4.05;55.03
70833;BME280;58452;59.418;17.962;2023-05-06T05:35:44;103057.56;;;4.15;53.54
70833;BME280;58452;59.418;17.962;2023-05-06T05:38:10;103055.53;;;4.26;51.95
70833;BME280;58452;59.418;17.962;2023-05-06T05:40:37;103054.63;;;3.67;52.39
70833;BME280;58452;59.418;17.962;2023-05-06T05:43:02;103054.84;;;3.90;51.96
70833;BME280;58452;59.418;17.962;2023-05-06T05:45:27;103058.31;;;4.19;51.39
70833;BME280;58452;59.418;17.962;2023-05-06T05:47:53;103059.25;;;4.44;50.73
70833;BME280;58452;59.418;17.962;2023-05-06T05:50:19;103055.28;;;4.63;51.00
70833;BME280;58452;59.418;17.962;2023-05-06T05:52:44;103048.22;;;4.71;50.79
70833;BME280;58452;59.418;17.962;2023-05-06T05:55:09;103064.03;;;4.84;49.92
70833;BME280;58452;59.418;17.962;2023-05-06T05:57:35;103059.00;;;4.81;50.44
70833;BME280;58452;59.418;17.962;2023-05-06T06:00:01;103064.63;;;4.64;48.67
70833;BME280;58452;59.418;17.962;2023-05-06T06:02:26;103068.81;;;4.10;48.64
70833;BME280;58452;59.418;17.962;2023-05-06T06:04:51;103067.53;;;3.93;49.74
70833;BME280;58452;59.418;17.962;2023-05-06T06:07:17;103067.72;;;3.87;48.76
70833;BME280;58452;59.418;17.962;2023-05-06T06:09:43;103064.53;;;3.79;48.43
70833;BME280;58452;59.418;17.962;2023-05-06T06:12:11;103070.13;;;4.23;49.15
70833;BME280;58452;59.418;17.962;2023-05-06T06:14:36;103062.53;;;4.49;47.37
70833;BME280;58452;59.418;17.962;2023-05-06T06:17:01;103066.25;;;4.67;46.96
70833;BME280;58452;59.418;17.962;2023-05-06T06:19:28;103050.38;;;4.57;47.01
70833;BME280;58452;59.418;17.962;2023-05-06T06:21:53;103057.03;;;4.89;47.49
70833;BME280;58452;59.418;17.962;2023-05-06T06:24:19;103060.66;;;5.10;45.29
70833;BME280;58452;59.418;17.962;2023-05-06T06:26:45;103048.34;;;5.21;45.63
70833;BME280;58452;59.418;17.962;2023-05-06T06:29:10;103060.63;;;4.83;45.84
70833;BME280;58452;59.418;17.962;2023-05-06T06:31:36;103053.53;;;5.18;46.29
70833;BME280;58452;59.418;17.962;2023-05-06T06:34:01;103060.06;;;5.53;46.60
70833;BME280;58452;59.418;17.962;2023-05-06T06:36:30;103043.63;;;5.58;45.16
70833;BME280;58452;59.418;17.962;2023-05-06T06:38:56;103054.34;;;5.69;44.79
70833;BME280;58452;59.418;17.962;2023-05-06T06:41:22;103052.94;;;5.85;44.12
70833;BME280;58452;59.418;17.962;2023-05-06T06:43:47;103051.19;;;6.11;44.63
70833;BME280;58452;59.418;17.962;2023-05-06T06:46:12;103052.69;;;6.16;44.66
70833;BME280;58452;59.418;17.962;2023-05-06T06:48:38;103055.88;;;5.75;43.54
70833;BME280;58452;59.418;17.962;2023-05-06T06:51:03;103055.19;;;5.95;44.06
70833;BME280;58452;59.418;17.962;2023-05-06T06:53:29;103049.78;;;6.02;43.51
70833;BME280;58452;59.418;17.962;2023-05-06T06:55:54;103054.31;;;5.71;43.74
70833;BME280;58452;59.418;17.962;2023-05-06T06:58:20;103045.41;;;5.81;42.73
70833;BME280;58452;59.418;17.962;2023-05-06T07:00:45;103055.25;;;5.68;43.07
70833;BME280;58452;59.418;17.962;2023-05-06T07:03:11;103058.44;;;6.00;42.74
70833;BME280;58452;59.418;17.962;2023-05-06T07:05:40;103050.66;;;6.24;42.21
70833;BME280;58452;59.418;17.962;2023-05-06T07:08:05;103047.47;;;5.71;42.44
70833;BME280;58452;59.418;17.962;2023-05-06T07:10:31;103049.75;;;5.54;42.83
70833;BME280;58452;59.418;17.962;2023-05-06T07:12:56;103043.41;;;5.91;43.07
70833;BME280;58452;59.418;17.962;2023-05-06T07:15:22;103055.75;;;6.03;42.07
70833;BME280;58452;59.418;17.962;2023-05-06T07:17:48;103047.91;;;6.07;42.48
70833;BME280;58452;59.418;17.962;2023-05-06T07:20:13;103055.63;;;6.06;43.23
70833;BME280;58452;59.418;17.962;2023-05-06T07:22:40;103054.91;;;5.77;43.69
70833;BME280;58452;59.418;17.962;2023-05-06T07:25:06;103046.75;;;6.16;43.99
70833;BME280;58452;59.418;17.962;2023-05-06T07:27:31;103050.28;;;6.57;40.90
70833;BME280;58452;59.418;17.962;2023-05-06T07:29:57;103046.31;;;6.71;41.53
70833;BME280;58452;59.418;17.962;2023-05-06T07:32:22;103046.59;;;6.85;40.36
70833;BME280;58452;59.418;17.962;2023-05-06T07:34:47;103044.84;;;7.08;40.68
70833;BME280;58452;59.418;17.962;2023-05-06T07:37:13;103051.66;;;6.65;40.27
70833;BME280;58452;59.418;17.962;2023-05-06T07:39:38;103040.22;;;6.74;39.89
70833;BME280;58452;59.418;17.962;2023-05-06T07:42:04;103050.81;;;6.43;39.75
70833;BME280;58452;59.418;17.962;2023-05-06T07:44:29;103051.19;;;6.11;40.83
70833;BME280;58452;59.418;17.962;2023-05-06T07:46:55;103055.00;;;6.46;41.51
70833;BME280;58452;59.418;17.962;2023-05-06T07:49:20;103046.94;;;6.76;42.51
70833;BME280;58452;59.418;17.962;2023-05-06T07:51:46;103041.06;;;6.74;43.30
70833;BME280;58452;59.418;17.962;2023-05-06T07:54:11;103046.00;;;7.01;41.62
70833;BME280;58452;59.418;17.962;2023-05-06T07:56:36;103038.94;;;7.26;41.61
70833;BME280;58452;59.418;17.962;2023-05-06T07:59:02;103044.84;;;7.48;41.37
70833;BME280;58452;59.418;17.962;2023-05-06T08:01:27;103038.31;;;7.41;38.23
70833;BME280;58452;59.418;17.962;2023-05-06T08:03:53;103030.22;;;7.30;40.58
70833;BME280;58452;59.418;17.962;2023-05-06T08:06:19;103023.75;;;7.60;40.10
70833;BME280;58452;59.418;17.962;2023-05-06T08:08:44;103031.94;;;7.89;39.65
70833;BME280;58452;59.418;17.962;2023-05-06T08:11:11;103037.00;;;8.09;37.05
70833;BME280;58452;59.418;17.962;2023-05-06T08:13:36;103035.44;;;8.25;35.53
70833;BME280;58452;59.418;17.962;2023-05-06T08:16:02;103036.41;;;8.41;35.97
70833;BME280;58452;59.418;17.962;2023-05-06T08:18:27;103033.50;;;8.30;36.29
70833;BME280;58452;59.418;17.962;2023-05-06T08:20:52;103036.72;;;7.77;36.48
70833;BME280;58452;59.418;17.962;2023-05-06T08:23:19;103029.94;;;7.16;37.34
70833;BME280;58452;59.418;17.962;2023-05-06T08:25:44;103033.78;;;6.64;38.21
70833;BME280;58452;59.418;17.962;2023-05-06T08:28:10;103023.03;;;6.54;38.47
70833;BME280;58452;59.418;17.962;2023-05-06T08:30:36;103027.84;;;6.83;39.35
70833;BME280;58452;59.418;17.962;2023-05-06T08:33:01;103027.00;;;7.25;39.02
70833;BME280;58452;59.418;17.962;2023-05-06T08:35:27;103023.25;;;7.52;37.35
70833;BME280;58452;59.418;17.962;2023-05-06T08:37:52;103021.78;;;7.47;36.56
70833;BME280;58452;59.418;17.962;2023-05-06T08:40:20;103024.75;;;7.76;37.87
70833;BME280;58452;59.418;17.962;2023-05-06T08:42:47;103026.38;;;7.98;37.88
70833;BME280;58452;59.418;17.962;2023-05-06T08:45:15;103012.53;;;8.19;38.35
70833;BME280;58452;59.418;17.962;2023-05-06T08:47:40;103016.88;;;8.37;35.95
70833;BME280;58452;59.418;17.962;2023-05-06T08:50:07;103012.69;;;8.53;34.88
70833;BME280;58452;59.418;17.962;2023-05-06T08:52:33;103001.94;;;8.62;35.58
70833;BME280;58452;59.418;17.962;2023-05-06T08:55:00;102995.38;;;8.74;34.06
70833;BME280;58452;59.418;17.962;2023-05-06T08:57:30;103009.84;;;8.94;33.48
70833;BME280;58452;59.418;17.962;2023-05-06T08:59:56;103008.63;;;9.01;32.68
70833;BME280;58452;59.418;17.962;2023-05-06T09:02:21;103005.00;;;8.88;33.12
70833;BME280;58452;59.418;17.962;2023-05-06T09:04:48;103004.84;;;9.08;33.60
70833;BME280;58452;59.418;17.962;2023-05-06T09:07:13;103002.41;;;9.22;35.14
70833;BME280;58452;59.418;17.962;2023-05-06T09:09:39;102997.72;;;9.30;36.30
70833;BME280;58452;59.418;17.962;2023-05-06T09:12:14;102994.94;;;9.50;35.77
70833;BME280;58452;59.418;17.962;2023-05-06T09:14:40;103003.31;;;9.71;33.32
70833;BME280;58452;59.418;17.962;2023-05-06T09:17:16;103001.66;;;9.20;32.65
70833;BME280;58452;59.418;17.962;2023-05-06T09:19:55;102998.88;;;9.24;32.18
70833;BME280;58452;59.418;17.962;2023-05-06T09:22:26;103004.78;;;9.09;33.89
70833;BME280;58452;59.418;17.962;2023-05-06T09:24:53;103002.31;;;9.41;34.74
70833;BME280;58452;59.418;17.962;2023-05-06T09:27:25;102999.47;;;9.62;33.75
70833;BME280;58452;59.418;17.962;2023-05-06T09:32:28;102999.44;;;10.11;34.13
70833;BME280;58452;59.418;17.962;2023-05-06T09:34:54;103001.41;;;10.06;32.27
70833;BME280;58452;59.418;17.962;2023-05-06T09:37:20;102986.81;;;10.22;34.18
70833;BME280;58452;59.418;17.962;2023-05-06T09:39:46;102981.06;;;10.17;31.95
70833;BME280;58452;59.418;17.962;2023-05-06T09:42:11;102980.03;;;10.35;34.02
70833;BME280;58452;59.418;17.962;2023-05-06T09:44:37;102983.00;;;9.80;30.93
70833;BME280;58452;59.418;17.962;2023-05-06T09:47:03;102985.09;;;9.41;31.42
70833;BME280;58452;59.418;17.962;2023-05-06T09:49:28;102983.59;;;9.70;30.19
70833;BME280;58452;59.418;17.962;2023-05-06T09:51:55;102978.63;;;9.17;31.01
70833;BME280;58452;59.418;17.962;2023-05-06T09:54:23;102973.28;;;9.37;31.61
70833;BME280;58452;59.418;17.962;2023-05-06T09:56:49;102973.09;;;9.57;31.76
70833;BME280;58452;59.418;17.962;2023-05-06T09:59:16;102970.13;;;9.80;32.25
70833;BME280;58452;59.418;17.962;2023-05-06T10:01:43;102965.31;;;10.06;31.46
70833;BME280;58452;59.418;17.962;2023-05-06T10:04:09;102953.69;;;10.30;30.64
70833;BME280;58452;59.418;17.962;2023-05-06T10:06:39;102964.13;;;9.80;31.75
70833;BME280;58452;59.418;17.962;2023-05-06T10:09:06;102948.97;;;10.05;34.84
70833;BME280;58452;59.418;17.962;2023-05-06T10:11:32;102938.25;;;10.28;31.92
70833;BME280;58452;59.418;17.962;2023-05-06T10:13:59;102944.38;;;10.57;32.73
70833;BME280;58452;59.418;17.962;2023-05-06T10:16:26;102949.81;;;10.06;29.97
70833;BME280;58452;59.418;17.962;2023-05-06T10:18:53;102952.25;;;9.77;32.61
70833;BME280;58452;59.418;17.962;2023-05-06T10:21:23;102936.09;;;10.05;32.83
70833;BME280;58452;59.418;17.962;2023-05-06T10:24:18;102933.19;;;9.96;30.91
70833;BME280;58452;59.418;17.962;2023-05-06T10:26:49;102934.84;;;10.28;31.57
70833;BME280;58452;59.418;17.962;2023-05-06T10:29:16;102917.34;;;10.49;32.45
70833;BME280;58452;59.418;17.962;2023-05-06T10:31:48;102924.09;;;10.65;31.46
70833;BME280;58452;59.418;17.962;2023-05-06T10:34:18;102924.59;;;9.48;33.11
70833;BME280;58452;59.418;17.962;2023-05-06T10:36:50;102915.38;;;10.07;32.19
70833;BME280;58452;59.418;17.962;2023-05-06T10:39:18;102903.19;;;10.40;31.59
70833;BME280;58452;59.418;17.962;2023-05-06T10:41:44;102913.03;;;10.63;32.39
70833;BME280;58452;59.418;17.962;2023-05-06T10:44:10;102903.91;;;10.72;30.22
70833;BME280;58452;59.418;17.962;2023-05-06T10:46:55;102899.44;;;11.04;34.08
70833;BME280;58452;59.418;17.962;2023-05-06T10:49:21;102898.59;;;11.32;33.74
70833;BME280;58452;59.418;17.962;2023-05-06T10:51:46;102901.63;;;11.38;31.47
70833;BME280;58452;59.418;17.962;2023-05-06T10:59:12;102893.50;;;11.72;28.83
70833;BME280;58452;59.418;17.962;2023-05-06T11:04:08;102882.56;;;12.08;30.20
70833;BME280;58452;59.418;17.962;2023-05-06T11:06:41;102889.94;;;11.33;29.98
70833;BME280;58452;59.418;17.962;2023-05-06T11:09:23;102884.13;;;11.29;32.44
70833;BME280;58452;59.418;17.962;2023-05-06T11:12:02;102877.09;;;11.03;32.22
70833;BME280;58452;59.418;17.962;2023-05-06T11:16:58;102868.50;;;11.86;31.57
70833;BME280;58452;59.418;17.962;2023-05-06T11:19:25;102867.16;;;12.19;32.37
70833;BME280;58452;59.418;17.962;2023-05-06T11:21:53;102861.03;;;12.47;33.30
70833;BME280;58452;59.418;17.962;2023-05-06T11:24:29;102865.34;;;12.59;29.53
70833;BME280;58452;59.418;17.962;2023-05-06T11:26:56;102864.28;;;12.24;30.14
70833;BME280;58452;59.418;17.962;2023-05-06T11:29:23;102858.84;;;12.02;31.87
70833;BME280;58452;59.418;17.962;2023-05-06T11:31:49;102865.63;;;12.30;31.40
70833;BME280;58452;59.418;17.962;2023-05-06T11:34:41;102861.44;;;12.54;33.06
70833;BME280;58452;59.418;17.962;2023-05-06T11:37:06;102861.94;;;12.71;33.94
70833;BME280;58452;59.418;17.962;2023-05-06T11:39:34;102858.44;;;12.98;32.15
70833;BME280;58452;59.418;17.962;2023-05-06T11:42:05;102858.91;;;13.03;32.05
70833;BME280;58452;59.418;17.962;2023-05-06T11:44:37;102861.56;;;13.39;34.05
70833;BME280;58452;59.418;17.962;2023-05-06T11:47:05;102857.97;;;13.65;31.67
70833;BME280;58452;59.418;17.962;2023-05-06T11:49:40;102860.09;;;12.86;31.05
70833;BME280;58452;59.418;17.962;2023-05-06T11:52:10;102849.41;;;12.91;30.17
70833;BME280;58452;59.418;17.962;2023-05-06T11:54:40;102857.69;;;13.21;30.65
70833;BME280;58452;59.418;17.962;2023-05-06T11:57:05;102845.69;;;12.95;31.05
70833;BME280;58452;59.418;17.962;2023-05-06T11:59:33;102841.09;;;13.11;32.29
70833;BME280;58452;59.418;17.962;2023-05-06T12:02:03;102827.28;;;13.59;33.95
70833;BME280;58452;59.418;17.962;2023-05-06T12:04:38;102841.16;;;14.06;33.73
70833;BME280;58452;59.418;17.962;2023-05-06T12:07:05;102846.28;;;14.53;31.31
70833;BME280;58452;59.418;17.962;2023-05-06T12:09:31;102840.97;;;14.44;30.75
70833;BME280;58452;59.418;17.962;2023-05-06T12:11:59;102844.50;;;14.43;29.55
70833;BME280;58452;59.418;17.962;2023-05-06T12:14:25;102844.09;;;14.71;32.49
70833;BME280;58452;59.418;17.962;2023-05-06T12:16:51;102836.41;;;15.03;32.21
70833;BME280;58452;59.418;17.962;2023-05-06T12:19:16;102835.44;;;15.26;29.00
70833;BME280;58452;59.418;17.962;2023-05-06T12:21:43;102844.28;;;13.63;32.43
70833;BME280;58452;59.418;17.962;2023-05-06T12:24:08;102847.03;;;14.32;30.00
70833;BME280;58452;59.418;17.962;2023-05-06T12:26:47;102838.94;;;14.36;29.10
70833;BME280;58452;59.418;17.962;2023-05-06T12:29:14;102842.88;;;14.18;28.64
70833;BME280;58452;59.418;17.962;2023-05-06T12:31:44;102805.78;;;13.81;33.62
70833;BME280;58452;59.418;17.962;2023-05-06T12:34:14;102827.66;;;14.71;32.75
70833;BME280;58452;59.418;17.962;2023-05-06T12:36:43;102834.59;;;15.37;31.19
70833;BME280;58452;59.418;17.962;2023-05-06T12:39:09;102834.72;;;14.80;28.86
70833;BME280;58452;59.418;17.962;2023-05-06T12:41:42;102832.38;;;15.10;32.11
70833;BME280;58452;59.418;17.962;2023-05-06T12:44:38;102823.09;;;15.50;29.17
70833;BME280;58452;59.418;17.962;2023-05-06T12:47:23;102819.50;;;15.94;29.04
70833;BME280;58452;59.418;17.962;2023-05-06T12:49:56;102819.63;;;15.93;28.25
70833;BME280;58452;59.418;17.962;2023-05-06T12:52:26;102815.56;;;16.41;29.64
70833;BME280;58452;59.418;17.962;2023-05-06T12:54:53;102825.81;;;16.12;27.93
70833;BME280;58452;59.418;17.962;2023-05-06T12:57:18;102822.94;;;16.36;29.75
70833;BME280;58452;59.418;17.962;2023-05-06T12:59:44;102822.34;;;16.33;28.52
70833;BME280;58452;59.418;17.962;2023-05-06T13:02:11;102827.84;;;16.81;29.81